Hohenlinden, Mississippi
Current Conditions -  °F | °C
As of 9:35 AM on Saturday 22 Nov 2014 (Local Time) from KSTF Reporting Station
Overcast Overcast  
Wind Chill: 57°   Ceiling: 12000
Heat Index: 57°   Visibility: NA
Dew Point: 41°   Wind: 6mph
Humidity: 55%   Direction: 160°SSE
Pressure: 30.31"   Gusts: NA
Location:  33.6711°N, 89.1329°W
Report Text: KSTF 221535Z AUTO 16005KT OVC120 14/05 A3031 RMK AO2 PWINO
Loading
Personal Weather Stations






























Interactive Weather Map New forecast layout! Learn more

10-Day Weather Forecast

Advertisements
Track Severe Weather on mobile